createdAt,value
2018-05-14T00:00:21.990Z,15.70
2018-05-14T00:02:49.635Z,15.70
2018-05-14T00:05:17.227Z,15.70
2018-05-14T00:07:44.955Z,15.70
2018-05-14T00:10:12.556Z,15.60
2018-05-14T00:12:40.175Z,15.60
2018-05-14T00:15:07.771Z,15.50
2018-05-14T00:17:35.446Z,15.50
2018-05-14T00:20:03.814Z,15.50
2018-05-14T00:22:31.459Z,15.50
2018-05-14T00:24:59.073Z,15.50
2018-05-14T00:27:26.681Z,15.50
2018-05-14T00:29:54.309Z,15.50
2018-05-14T00:32:21.932Z,15.50
2018-05-14T00:34:50.348Z,15.50
2018-05-14T00:37:18.004Z,15.50
2018-05-14T00:39:45.653Z,15.50
2018-05-14T00:42:13.250Z,15.50
2018-05-14T00:44:40.891Z,15.50
2018-05-14T00:47:08.537Z,15.50
2018-05-14T00:49:36.150Z,15.40
2018-05-14T00:52:03.832Z,15.40
2018-05-14T00:54:31.417Z,15.40
2018-05-14T00:56:59.835Z,15.40
2018-05-14T00:59:27.471Z,15.40
2018-05-14T01:01:55.120Z,15.40
2018-05-14T01:04:23.460Z,15.50
2018-05-14T01:06:51.170Z,15.50
2018-05-14T01:09:18.781Z,15.50
2018-05-14T01:11:46.362Z,15.40
2018-05-14T01:14:14.753Z,15.40
2018-05-14T01:16:43.118Z,15.40
2018-05-14T01:19:10.735Z,15.30
2018-05-14T01:21:38.398Z,15.30
2018-05-14T01:24:06.009Z,15.30
2018-05-14T01:26:34.435Z,15.40
2018-05-14T01:29:02.045Z,15.40
2018-05-14T01:31:29.681Z,15.40
2018-05-14T01:33:57.303Z,15.50
2018-05-14T01:36:25.036Z,15.40
2018-05-14T01:38:53.474Z,15.40
2018-05-14T01:41:21.079Z,15.40
2018-05-14T01:43:48.749Z,15.40
2018-05-14T01:46:17.139Z,15.40
2018-05-14T01:48:44.785Z,15.40
2018-05-14T01:51:12.381Z,15.50
2018-05-14T01:53:40.004Z,15.50
2018-05-14T01:56:08.964Z,15.60
2018-05-14T01:58:36.588Z,15.60
2018-05-14T02:01:04.226Z,15.60
2018-05-14T02:03:31.891Z,15.60
2018-05-14T02:05:59.513Z,15.60
2018-05-14T02:08:27.090Z,15.60
2018-05-14T02:10:54.742Z,15.60
2018-05-14T02:13:22.373Z,15.60
2018-05-14T02:15:49.965Z,15.60
2018-05-14T02:18:17.568Z,15.70
2018-05-14T02:20:45.175Z,15.70
2018-05-14T02:23:12.794Z,15.60
2018-05-14T02:25:41.242Z,15.50
2018-05-14T02:28:08.867Z,15.50
2018-05-14T02:30:36.467Z,15.60
2018-05-14T02:33:04.188Z,15.60
2018-05-14T02:35:31.819Z,15.60
2018-05-14T02:37:59.439Z,15.60
2018-05-14T02:40:28.824Z,15.50
2018-05-14T02:42:56.413Z,15.50
2018-05-14T02:45:24.034Z,15.50
2018-05-14T02:47:51.710Z,15.50
2018-05-14T02:50:19.323Z,15.50
2018-05-14T02:52:46.928Z,15.50
2018-05-14T02:55:14.507Z,15.50
2018-05-14T02:57:42.143Z,15.50
2018-05-14T03:00:09.791Z,15.50
2018-05-14T03:02:37.396Z,15.50
2018-05-14T03:05:05.036Z,15.50
2018-05-14T03:07:32.599Z,15.50
2018-05-14T03:10:00.233Z,15.50
2018-05-14T03:12:27.873Z,15.50
2018-05-14T03:14:56.881Z,15.50
2018-05-14T03:17:24.555Z,15.50
2018-05-14T03:19:52.195Z,15.50
2018-05-14T03:22:19.849Z,15.50
2018-05-14T03:24:47.423Z,15.60
2018-05-14T03:27:15.077Z,15.60
2018-05-14T03:29:42.678Z,15.60
2018-05-14T03:32:10.295Z,15.60
2018-05-14T03:34:38.723Z,15.60
2018-05-14T03:37:06.312Z,15.60
2018-05-14T03:39:34.708Z,15.60
2018-05-14T03:42:02.335Z,15.60
2018-05-14T03:44:29.962Z,15.50
2018-05-14T03:46:57.591Z,15.50
2018-05-14T03:49:25.192Z,15.40
2018-05-14T03:51:52.843Z,15.40
2018-05-14T03:54:20.443Z,15.40
2018-05-14T03:56:48.074Z,15.40
2018-05-14T03:59:27.482Z,15.50
2018-05-14T04:02:16.777Z,15.40
2018-05-14T04:04:56.171Z,15.50
2018-05-14T04:07:24.584Z,15.50
2018-05-14T04:09:52.179Z,15.50
2018-05-14T04:12:19.797Z,15.50
2018-05-14T04:14:48.433Z,15.40
2018-05-14T04:17:16.035Z,15.40
2018-05-14T04:19:43.678Z,15.40
2018-05-14T04:22:12.066Z,15.50
2018-05-14T04:24:39.723Z,15.40
2018-05-14T04:27:08.182Z,15.50
2018-05-14T04:29:36.561Z,15.50
2018-05-14T04:32:04.187Z,15.50
2018-05-14T04:34:31.843Z,15.40
2018-05-14T04:37:01.288Z,15.40
2018-05-14T04:39:29.688Z,15.40
2018-05-14T04:41:58.097Z,15.40
2018-05-14T04:44:25.701Z,15.40
2018-05-14T04:46:53.326Z,15.40
2018-05-14T04:49:20.958Z,15.40
2018-05-14T04:51:48.558Z,15.50
2018-05-14T04:54:16.151Z,15.30
2018-05-14T04:56:43.735Z,15.30
2018-05-14T04:59:11.435Z,15.30
2018-05-14T05:01:39.860Z,15.40
2018-05-14T05:04:07.429Z,15.30
2018-05-14T05:06:35.131Z,15.30
2018-05-14T05:09:02.821Z,15.30
2018-05-14T05:11:30.433Z,15.30
2018-05-14T05:13:58.100Z,15.30
2018-05-14T05:16:25.755Z,15.20
2018-05-14T05:18:53.406Z,15.30
2018-05-14T05:21:21.021Z,15.40
2018-05-14T05:23:48.595Z,15.60
2018-05-14T05:26:16.222Z,16.00
2018-05-14T05:28:43.926Z,16.30
2018-05-14T05:31:12.338Z,16.30
2018-05-14T05:33:40.111Z,16.30
2018-05-14T05:36:07.731Z,16.20
2018-05-14T05:38:35.356Z,16.10
2018-05-14T05:41:03.032Z,16.10
2018-05-14T05:43:30.678Z,15.90
2018-05-14T05:45:58.349Z,15.90
2018-05-14T05:48:25.966Z,15.80
2018-05-14T05:50:54.344Z,15.60
2018-05-14T05:53:21.961Z,15.60
2018-05-14T05:55:49.603Z,15.60
2018-05-14T05:58:17.324Z,15.60
2018-05-14T06:00:44.930Z,15.60
2018-05-14T06:03:12.514Z,15.70
2018-05-14T06:05:40.199Z,15.70
2018-05-14T06:08:07.879Z,15.90
2018-05-14T06:10:36.266Z,16.50
2018-05-14T06:13:04.642Z,16.50
2018-05-14T06:15:33.210Z,16.50
2018-05-14T06:18:00.784Z,16.50
2018-05-14T06:20:29.240Z,16.30
2018-05-14T06:22:56.881Z,16.30
2018-05-14T06:25:24.539Z,16.20
2018-05-14T06:27:52.236Z,16.20
2018-05-14T06:30:19.847Z,16.40
2018-05-14T06:32:48.744Z,17.70
2018-05-14T06:35:16.525Z,17.60
2018-05-14T06:37:44.179Z,18.10
2018-05-14T06:40:11.814Z,18.50
2018-05-14T06:42:39.420Z,18.40
2018-05-14T06:45:07.026Z,18.30
2018-05-14T06:47:35.421Z,18.10
2018-05-14T06:50:03.071Z,18.10
2018-05-14T06:52:30.741Z,17.90
2018-05-14T06:54:58.543Z,17.90
2018-05-14T06:57:26.263Z,17.90
2018-05-14T06:59:53.888Z,18.00
2018-05-14T07:02:21.556Z,17.90
2018-05-14T07:04:49.162Z,17.80
2018-05-14T07:07:16.795Z,17.70
2018-05-14T07:09:45.190Z,17.70
2018-05-14T07:12:12.805Z,17.70
2018-05-14T07:14:40.395Z,17.70
2018-05-14T07:17:08.762Z,18.00
2018-05-14T07:19:36.381Z,18.00
2018-05-14T07:22:04.011Z,18.10
2018-05-14T07:24:31.660Z,18.10
2018-05-14T07:27:00.279Z,18.00
2018-05-14T07:29:28.107Z,18.00
2018-05-14T07:31:56.513Z,18.20
2018-05-14T07:34:24.115Z,18.20
2018-05-14T07:36:51.744Z,18.20
2018-05-14T07:39:19.379Z,18.30
2018-05-14T07:41:47.045Z,18.40
2018-05-14T07:44:14.641Z,18.60
2018-05-14T07:46:42.249Z,18.70
2018-05-14T07:49:10.053Z,18.80
2018-05-14T07:51:37.584Z,18.90
2018-05-14T07:54:05.203Z,19.10
2018-05-14T07:56:32.821Z,19.00
2018-05-14T07:59:00.479Z,19.00
2018-05-14T08:01:28.084Z,19.10
2018-05-14T08:03:55.701Z,19.10
2018-05-14T08:06:23.318Z,19.10
2018-05-14T08:08:50.948Z,19.20
2018-05-14T08:11:18.612Z,19.30
2018-05-14T08:13:46.342Z,19.30
2018-05-14T08:16:13.925Z,19.20
2018-05-14T08:18:41.531Z,19.30
2018-05-14T08:21:09.188Z,19.40
2018-05-14T08:23:36.918Z,19.50
2018-05-14T08:26:04.481Z,19.60
2018-05-14T08:28:32.276Z,19.80
2018-05-14T08:30:59.889Z,19.80
2018-05-14T08:33:27.459Z,19.70
2018-05-14T08:35:55.116Z,19.80
2018-05-14T08:38:22.720Z,19.80
2018-05-14T08:40:50.371Z,19.80
2018-05-14T08:43:17.929Z,19.90
2018-05-14T08:45:45.557Z,20.00
2018-05-14T08:48:13.217Z,20.00
2018-05-14T08:50:40.861Z,20.20
2018-05-14T08:53:08.555Z,20.30
2018-05-14T08:55:36.202Z,20.40
2018-05-14T08:58:03.828Z,20.50
2018-05-14T09:00:31.441Z,20.60
2018-05-14T09:02:59.015Z,20.60
2018-05-14T09:05:26.726Z,20.80
2018-05-14T09:07:55.115Z,20.90
2018-05-14T09:10:23.519Z,21.00
2018-05-14T09:12:51.310Z,21.00
2018-05-14T09:15:19.047Z,21.00
2018-05-14T09:17:46.671Z,21.00
2018-05-14T09:20:15.090Z,21.30
2018-05-14T09:22:42.749Z,21.30
2018-05-14T09:25:10.427Z,21.40
2018-05-14T09:27:38.096Z,21.40
2018-05-14T09:30:05.728Z,21.40
2018-05-14T09:32:33.335Z,21.50
2018-05-14T09:35:01.081Z,21.70
2018-05-14T09:37:28.722Z,21.70
2018-05-14T09:39:56.340Z,21.70
2018-05-14T09:42:23.926Z,21.70
2018-05-14T09:44:51.519Z,21.70
2018-05-14T09:47:19.148Z,21.70
2018-05-14T09:49:46.742Z,21.70
2018-05-14T09:52:14.469Z,21.80
2018-05-14T09:54:42.107Z,21.90
2018-05-14T09:57:10.479Z,22.10
2018-05-14T09:59:38.100Z,22.00
2018-05-14T10:02:05.931Z,22.00
2018-05-14T10:04:33.433Z,22.00
2018-05-14T10:07:01.040Z,22.10
2018-05-14T10:09:29.609Z,22.20
2018-05-14T10:11:57.256Z,22.10
2018-05-14T10:14:24.897Z,22.30
2018-05-14T10:16:52.478Z,22.30
2018-05-14T10:19:20.098Z,22.40
2018-05-14T10:21:47.665Z,22.50
2018-05-14T10:24:15.296Z,22.60
2018-05-14T10:26:42.948Z,22.80
2018-05-14T10:29:10.507Z,22.80
2018-05-14T10:31:38.906Z,23.00
2018-05-14T10:34:07.330Z,23.00
2018-05-14T10:36:35.019Z,23.00
2018-05-14T10:39:02.771Z,23.20
2018-05-14T10:41:30.394Z,23.20
2018-05-14T10:43:58.064Z,23.30
2018-05-14T10:46:25.654Z,23.40
2018-05-14T10:48:53.292Z,23.60
2018-05-14T10:51:20.921Z,23.70
2018-05-14T10:53:49.330Z,23.70
2018-05-14T10:56:16.995Z,23.70
2018-05-14T10:58:44.629Z,23.70
2018-05-14T11:01:12.238Z,23.80
2018-05-14T11:03:39.864Z,23.90
2018-05-14T11:06:07.425Z,23.90
2018-05-14T11:08:35.016Z,24.00
2018-05-14T11:11:02.647Z,24.00
2018-05-14T11:13:30.246Z,24.00
2018-05-14T11:15:58.277Z,24.10
2018-05-14T11:18:25.887Z,24.20
2018-05-14T11:20:53.525Z,24.20
2018-05-14T11:23:21.129Z,24.20
2018-05-14T11:25:48.726Z,24.30
2018-05-14T11:28:16.297Z,24.40
2018-05-14T11:30:43.903Z,24.60
2018-05-14T11:33:11.507Z,24.70
2018-05-14T11:35:39.076Z,24.90
2018-05-14T11:38:06.688Z,24.90
2018-05-14T11:40:34.291Z,24.90
2018-05-14T11:43:01.936Z,24.90
2018-05-14T11:45:29.735Z,24.90
2018-05-14T11:47:57.394Z,24.90
2018-05-14T11:50:25.134Z,24.90
2018-05-14T11:52:52.798Z,25.00
2018-05-14T11:55:20.347Z,25.10
2018-05-14T11:57:48.733Z,25.20
2018-05-14T12:00:16.367Z,25.20
2018-05-14T12:02:44.056Z,25.40
2018-05-14T12:05:11.685Z,25.40
2018-05-14T12:07:39.302Z,25.40
2018-05-14T12:10:07.030Z,25.40
2018-05-14T12:12:34.558Z,25.50
2018-05-14T12:15:02.198Z,25.40
2018-05-14T12:17:29.820Z,25.40
2018-05-14T12:19:58.193Z,25.60
2018-05-14T12:22:26.563Z,25.60
2018-05-14T12:24:54.975Z,25.60
2018-05-14T12:27:22.575Z,25.60
2018-05-14T12:29:50.198Z,25.60
2018-05-14T12:32:17.824Z,25.70
2018-05-14T12:34:46.250Z,25.70
2018-05-14T12:37:13.859Z,25.70
2018-05-14T12:39:41.460Z,25.70
2018-05-14T12:42:09.054Z,25.90
2018-05-14T12:44:36.692Z,25.90
2018-05-14T12:47:04.290Z,25.90
2018-05-14T12:49:31.888Z,25.80
2018-05-14T12:52:00.152Z,25.80
2018-05-14T12:54:28.498Z,26.00
2018-05-14T12:56:56.173Z,26.00
2018-05-14T12:59:24.584Z,26.10
2018-05-14T13:01:52.252Z,26.10
2018-05-14T13:04:19.853Z,26.10
2018-05-14T13:06:47.456Z,26.20
2018-05-14T13:09:15.143Z,26.30
2018-05-14T13:11:42.760Z,26.30
2018-05-14T13:14:10.336Z,26.40
2018-05-14T13:16:38.009Z,26.40
2018-05-14T13:19:05.667Z,26.40
2018-05-14T13:21:33.213Z,26.40
2018-05-14T13:24:01.646Z,26.50
2018-05-14T13:26:29.407Z,26.50
2018-05-14T13:28:57.026Z,26.40
2018-05-14T13:31:25.385Z,26.50
2018-05-14T13:33:53.009Z,26.50
2018-05-14T13:36:20.636Z,26.50
2018-05-14T13:38:49.043Z,26.60
2018-05-14T13:41:16.662Z,26.60
2018-05-14T13:43:45.040Z,27.00
2018-05-14T13:46:12.648Z,26.90
2018-05-14T13:48:40.292Z,27.00
2018-05-14T13:51:07.882Z,27.10
2018-05-14T13:53:35.536Z,27.10
2018-05-14T13:56:03.209Z,27.00
2018-05-14T13:58:30.825Z,26.90
2018-05-14T14:00:59.209Z,26.70
2018-05-14T14:03:26.787Z,26.60
2018-05-14T14:05:54.460Z,26.60
2018-05-14T14:08:22.036Z,26.50
2018-05-14T14:10:49.649Z,26.50
2018-05-14T14:13:18.057Z,26.40
2018-05-14T14:15:45.716Z,26.40
2018-05-14T14:18:13.382Z,26.40
2018-05-14T14:20:41.046Z,26.40
2018-05-14T14:23:08.719Z,26.60
2018-05-14T14:25:36.256Z,26.70
2018-05-14T14:28:03.859Z,26.80
2018-05-14T14:30:31.603Z,26.90
2018-05-14T14:32:59.245Z,26.80
2018-05-14T14:35:26.806Z,26.90
2018-05-14T14:37:54.409Z,26.80
2018-05-14T14:40:23.133Z,26.70
2018-05-14T14:42:50.760Z,26.80
2018-05-14T14:45:18.350Z,26.90
2018-05-14T14:47:45.939Z,26.70
2018-05-14T14:50:13.547Z,26.90
2018-05-14T14:52:41.142Z,26.90
2018-05-14T14:55:08.751Z,26.90
2018-05-14T14:57:37.129Z,26.90
2018-05-14T15:00:04.780Z,26.90
2018-05-14T15:02:32.385Z,27.00
2018-05-14T15:04:59.997Z,26.90
2018-05-14T15:07:27.621Z,26.90
2018-05-14T15:09:55.961Z,27.00
2018-05-14T15:12:23.560Z,27.00
2018-05-14T15:14:51.261Z,26.90
2018-05-14T15:17:18.898Z,26.90
2018-05-14T15:19:46.576Z,26.90
2018-05-14T15:22:14.204Z,26.90
2018-05-14T15:24:41.987Z,27.00
2018-05-14T15:27:09.644Z,27.10
2018-05-14T15:29:37.223Z,27.20
2018-05-14T15:32:04.975Z,27.20
2018-05-14T15:34:32.598Z,27.20
2018-05-14T15:37:00.186Z,27.20
2018-05-14T15:39:27.897Z,27.20
2018-05-14T15:41:55.509Z,27.10
2018-05-14T15:44:23.065Z,27.20
2018-05-14T15:46:50.663Z,27.20
2018-05-14T15:49:18.277Z,27.20
2018-05-14T15:51:45.956Z,27.20
2018-05-14T15:54:13.669Z,27.20
2018-05-14T15:56:41.259Z,27.20
2018-05-14T15:59:10.544Z,27.20
2018-05-14T16:01:38.169Z,27.20
2018-05-14T16:04:05.966Z,27.20
2018-05-14T16:06:33.590Z,27.10
2018-05-14T16:09:01.208Z,27.10
2018-05-14T16:11:28.930Z,27.20
2018-05-14T16:13:56.597Z,27.20
2018-05-14T16:16:24.220Z,27.20
2018-05-14T16:18:51.818Z,27.30
2018-05-14T16:21:19.401Z,27.30
2018-05-14T16:23:47.851Z,27.20
2018-05-14T16:26:15.442Z,27.30
2018-05-14T16:28:43.347Z,27.20
2018-05-14T16:31:11.026Z,27.30
2018-05-14T16:33:38.747Z,27.20
2018-05-14T16:36:07.576Z,27.10
2018-05-14T16:38:35.341Z,27.00
2018-05-14T16:41:02.979Z,27.00
2018-05-14T16:43:30.979Z,27.00
2018-05-14T16:45:58.924Z,26.80
2018-05-14T16:48:26.498Z,26.80
2018-05-14T16:50:54.104Z,26.70
2018-05-14T16:53:21.710Z,26.60
2018-05-14T16:55:49.364Z,26.50
2018-05-14T16:58:16.939Z,26.40
2018-05-14T17:00:44.523Z,26.40
2018-05-14T17:03:12.166Z,26.40
2018-05-14T17:05:39.777Z,26.30
2018-05-14T17:08:07.346Z,26.20
2018-05-14T17:10:35.819Z,25.90
2018-05-14T17:13:05.243Z,25.90
2018-05-14T17:15:34.740Z,26.20
2018-05-14T17:18:04.192Z,27.30
2018-05-14T17:20:32.573Z,28.30
2018-05-14T17:23:00.206Z,28.30
2018-05-14T17:25:27.821Z,28.90
2018-05-14T17:27:55.508Z,29.60
2018-05-14T17:30:24.063Z,29.70
2018-05-14T17:32:51.651Z,29.70
2018-05-14T17:35:20.018Z,28.70
2018-05-14T17:37:47.694Z,28.70
2018-05-14T17:40:16.095Z,27.60
2018-05-14T17:42:43.831Z,27.50
2018-05-14T17:45:12.297Z,27.00
2018-05-14T17:47:39.923Z,27.00
2018-05-14T17:50:07.520Z,26.80
2018-05-14T17:52:35.105Z,26.50
2018-05-14T17:55:02.731Z,26.50
2018-05-14T17:57:30.360Z,26.50
2018-05-14T17:59:57.957Z,27.10
2018-05-14T18:02:25.617Z,27.30
2018-05-14T18:04:53.323Z,27.10
2018-05-14T18:07:21.014Z,26.90
2018-05-14T18:09:48.684Z,26.70
2018-05-14T18:12:16.437Z,26.30
2018-05-14T18:14:44.063Z,26.00
2018-05-14T18:17:12.439Z,25.40
2018-05-14T18:19:45.646Z,25.30
2018-05-14T18:22:19.652Z,25.00
2018-05-14T18:24:51.030Z,24.80
2018-05-14T18:27:24.409Z,24.80
2018-05-14T18:29:54.840Z,24.70
2018-05-14T18:32:22.445Z,24.60
2018-05-14T18:34:55.953Z,24.50
2018-05-14T18:37:23.631Z,24.40
2018-05-14T18:39:51.244Z,24.30
2018-05-14T18:42:19.021Z,24.20
2018-05-14T18:44:46.670Z,24.20
2018-05-14T18:47:14.302Z,24.20
2018-05-14T18:49:41.901Z,24.00
2018-05-14T18:52:09.592Z,24.00
2018-05-14T18:54:37.169Z,23.90
2018-05-14T18:57:05.517Z,23.70
2018-05-14T18:59:33.141Z,23.70
2018-05-14T19:02:00.724Z,23.70
2018-05-14T19:04:28.324Z,23.60
2018-05-14T19:06:56.657Z,23.50
2018-05-14T19:09:24.344Z,23.40
2018-05-14T19:11:52.568Z,23.40
2018-05-14T19:14:20.548Z,23.30
2018-05-14T19:16:53.977Z,23.30
2018-05-14T19:19:22.111Z,23.20
2018-05-14T19:21:49.695Z,23.10
2018-05-14T19:24:17.346Z,23.10
2018-05-14T19:26:44.953Z,23.10
2018-05-14T19:29:18.504Z,23.00
2018-05-14T19:31:46.083Z,23.00
2018-05-14T19:34:19.427Z,22.90
2018-05-14T19:36:47.776Z,22.90
2018-05-14T19:39:21.043Z,22.90
2018-05-14T19:41:48.638Z,22.90
2018-05-14T19:44:16.281Z,22.90
2018-05-14T19:46:43.952Z,22.90
2018-05-14T19:49:11.587Z,23.00
2018-05-14T19:51:39.229Z,23.00
2018-05-14T19:54:06.894Z,23.00
2018-05-14T19:56:34.445Z,22.90
2018-05-14T19:59:02.070Z,22.80
2018-05-14T20:01:29.690Z,22.80
2018-05-14T20:03:57.301Z,22.70
2018-05-14T20:06:24.975Z,22.60
2018-05-14T20:08:53.426Z,22.60
2018-05-14T20:11:21.008Z,22.60
2018-05-14T20:13:49.362Z,22.50
2018-05-14T20:16:17.038Z,22.40
2018-05-14T20:18:45.429Z,22.30
2018-05-14T20:21:13.807Z,22.20
2018-05-14T20:23:42.242Z,22.10
2018-05-14T20:26:09.864Z,22.10
2018-05-14T20:28:38.347Z,22.00
2018-05-14T20:31:06.177Z,22.00
2018-05-14T20:33:34.593Z,21.80
2018-05-14T20:36:02.215Z,21.80
2018-05-14T20:38:29.839Z,21.70
2018-05-14T20:40:57.515Z,21.60
2018-05-14T20:43:25.202Z,21.60
2018-05-14T20:45:52.825Z,21.50
2018-05-14T20:48:20.524Z,21.50
2018-05-14T20:50:48.875Z,21.30
2018-05-14T20:53:16.480Z,21.30
2018-05-14T20:55:44.069Z,21.30
2018-05-14T20:58:12.449Z,21.20
2018-05-14T21:00:40.052Z,21.20
2018-05-14T21:03:07.640Z,21.20
2018-05-14T21:05:35.302Z,21.20
2018-05-14T21:08:02.905Z,21.10
2018-05-14T21:10:31.164Z,21.10
2018-05-14T21:12:59.605Z,21.00
2018-05-14T21:15:27.218Z,21.00
2018-05-14T21:17:54.832Z,21.00
2018-05-14T21:20:22.437Z,20.90
2018-05-14T21:22:50.026Z,20.90
2018-05-14T21:25:18.400Z,20.80
2018-05-14T21:27:45.987Z,20.70
2018-05-14T21:30:13.598Z,20.80
2018-05-14T21:32:41.196Z,20.70
2018-05-14T21:35:08.768Z,20.70
2018-05-14T21:37:36.370Z,20.60
2018-05-14T21:40:03.928Z,20.60
2018-05-14T21:42:32.324Z,20.50
2018-05-14T21:44:59.889Z,20.40
2018-05-14T21:47:27.478Z,20.40
2018-05-14T21:49:55.073Z,20.30
2018-05-14T21:52:23.468Z,20.20
2018-05-14T21:54:51.862Z,20.10
2018-05-14T21:57:19.486Z,20.10
2018-05-14T21:59:47.098Z,20.10
2018-05-14T22:02:14.714Z,20.10
2018-05-14T22:04:43.100Z,19.90
2018-05-14T22:07:10.740Z,19.90
2018-05-14T22:09:38.398Z,19.90
2018-05-14T22:12:06.062Z,19.80
2018-05-14T22:14:33.673Z,19.80
2018-05-14T22:17:01.371Z,19.70
2018-05-14T22:19:29.006Z,19.70
2018-05-14T22:21:56.618Z,19.70
2018-05-14T22:24:24.233Z,19.70
2018-05-14T22:26:51.888Z,19.60
2018-05-14T22:29:19.455Z,19.50
2018-05-14T22:31:47.028Z,19.50
2018-05-14T22:34:14.612Z,19.40
2018-05-14T22:36:42.169Z,19.40
2018-05-14T22:39:10.544Z,19.30
2018-05-14T22:41:38.201Z,19.30
2018-05-14T22:44:05.781Z,19.30
2018-05-14T22:46:33.353Z,19.30
2018-05-14T22:49:01.072Z,19.20
2018-05-14T22:51:28.678Z,19.20
2018-05-14T22:53:56.252Z,19.20
2018-05-14T22:56:24.602Z,19.00
2018-05-14T22:58:52.175Z,19.00
2018-05-14T23:01:19.765Z,19.00
2018-05-14T23:03:47.341Z,18.90
2018-05-14T23:06:14.931Z,18.80
2018-05-14T23:08:42.719Z,18.70
2018-05-14T23:11:10.272Z,18.70
2018-05-14T23:13:37.838Z,18.50
2018-05-14T23:16:05.430Z,18.50
2018-05-14T23:18:33.765Z,18.40
2018-05-14T23:21:01.350Z,18.30
2018-05-14T23:23:29.664Z,18.30
2018-05-14T23:25:57.246Z,18.30
2018-05-14T23:28:24.889Z,18.20
2018-05-14T23:30:52.468Z,18.10
2018-05-14T23:33:20.071Z,18.10
2018-05-14T23:35:48.427Z,18.00
2018-05-14T23:38:16.033Z,18.00
2018-05-14T23:40:43.646Z,18.10
2018-05-14T23:43:12.007Z,18.00
2018-05-14T23:45:39.653Z,18.00
2018-05-14T23:48:07.213Z,18.00
2018-05-14T23:50:34.791Z,18.00
2018-05-14T23:53:02.374Z,17.90
2018-05-14T23:55:29.934Z,17.90
2018-05-14T23:57:57.517Z,17.90
